sensor_id;sensor_type;location;lat;lon;timestamp;temperature;humidity
67192;HTU21D;54120;53.504;49.426;2023-02-15T00:01:40;-9.62;88.89
67192;HTU21D;54120;53.504;49.426;2023-02-15T00:04:07;-9.60;89.19
67192;HTU21D;54120;53.504;49.426;2023-02-15T00:06:33;-9.59;89.13
67192;HTU21D;54120;53.504;49.426;2023-02-15T00:08:59;-9.60;88.56
67192;HTU21D;54120;53.504;49.426;2023-02-15T00:11:26;-9.59;88.74
67192;HTU21D;54120;53.504;49.426;2023-02-15T00:14:18;-9.58;88.73
67192;HTU21D;54120;53.504;49.426;2023-02-15T00:16:46;-9.56;88.15
67192;HTU21D;54120;53.504;49.426;2023-02-15T00:19:13;-9.60;88.09
67192;HTU21D;54120;53.504;49.426;2023-02-15T00:21:40;-9.61;87.95
67192;HTU21D;54120;53.504;49.426;2023-02-15T00:24:08;-9.62;87.72
67192;HTU21D;54120;53.504;49.426;2023-02-15T00:26:35;-9.61;88.64
67192;HTU21D;54120;53.504;49.426;2023-02-15T00:29:03;-9.60;88.45
67192;HTU21D;54120;53.504;49.426;2023-02-15T00:31:30;-9.63;88.27
67192;HTU21D;54120;53.504;49.426;2023-02-15T00:34:06;-9.68;88.64
67192;HTU21D;54120;53.504;49.426;2023-02-15T00:36:32;-9.64;88.68
67192;HTU21D;54120;53.504;49.426;2023-02-15T00:38:58;-9.61;88.25
67192;HTU21D;54120;53.504;49.426;2023-02-15T00:41:24;-9.67;88.19
67192;HTU21D;54120;53.504;49.426;2023-02-15T00:43:50;-9.68;88.02
67192;HTU21D;54120;53.504;49.426;2023-02-15T00:46:16;-9.70;88.15
67192;HTU21D;54120;53.504;49.426;2023-02-15T00:48:43;-9.72;88.24
67192;HTU21D;54120;53.504;49.426;2023-02-15T00:51:08;-9.71;88.41
67192;HTU21D;54120;53.504;49.426;2023-02-15T00:53:34;-9.71;88.28
67192;HTU21D;54120;53.504;49.426;2023-02-15T00:56:00;-9.71;88.36
67192;HTU21D;54120;53.504;49.426;2023-02-15T00:58:26;-9.73;88.15
67192;HTU21D;54120;53.504;49.426;2023-02-15T01:00:52;-9.73;88.37
67192;HTU21D;54120;53.504;49.426;2023-02-15T01:03:20;-9.68;87.93
67192;HTU21D;54120;53.504;49.426;2023-02-15T01:05:47;-9.70;87.98
67192;HTU21D;54120;53.504;49.426;2023-02-15T01:08:14;-9.73;88.04
67192;HTU21D;54120;53.504;49.426;2023-02-15T01:10:40;-9.71;88.21
67192;HTU21D;54120;53.504;49.426;2023-02-15T01:13:06;-9.70;87.80
67192;HTU21D;54120;53.504;49.426;2023-02-15T01:15:35;-9.74;88.12
67192;HTU21D;54120;53.504;49.426;2023-02-15T01:18:01;-9.73;88.09
67192;HTU21D;54120;53.504;49.426;2023-02-15T01:20:29;-9.72;88.06
67192;HTU21D;54120;53.504;49.426;2023-02-15T01:22:56;-9.72;88.35
67192;HTU21D;54120;53.504;49.426;2023-02-15T01:25:24;-9.69;88.38
67192;HTU21D;54120;53.504;49.426;2023-02-15T01:27:50;-9.71;87.92
67192;HTU21D;54120;53.504;49.426;2023-02-15T01:30:17;-9.72;88.24
67192;HTU21D;54120;53.504;49.426;2023-02-15T01:32:43;-9.75;88.24
67192;HTU21D;54120;53.504;49.426;2023-02-15T01:35:10;-9.72;88.36
67192;HTU21D;54120;53.504;49.426;2023-02-15T01:37:36;-9.76;88.19
67192;HTU21D;54120;53.504;49.426;2023-02-15T01:40:04;-9.77;88.47
67192;HTU21D;54120;53.504;49.426;2023-02-15T01:42:31;-9.75;88.53
67192;HTU21D;54120;53.504;49.426;2023-02-15T01:45:03;-9.76;88.59
67192;HTU21D;54120;53.504;49.426;2023-02-15T01:50:08;-9.79;88.24
67192;HTU21D;54120;53.504;49.426;2023-02-15T01:52:37;-9.79;87.90
67192;HTU21D;54120;53.504;49.426;2023-02-15T01:55:04;-9.83;87.95
67192;HTU21D;54120;53.504;49.426;2023-02-15T01:57:32;-9.81;88.18
67192;HTU21D;54120;53.504;49.426;2023-02-15T02:00:00;-9.81;88.17
67192;HTU21D;54120;53.504;49.426;2023-02-15T02:02:28;-9.82;87.96
67192;HTU21D;54120;53.504;49.426;2023-02-15T02:05:01;-9.84;88.41
67192;HTU21D;54120;53.504;49.426;2023-02-15T02:07:39;-9.82;88.11
67192;HTU21D;54120;53.504;49.426;2023-02-15T02:10:08;-9.83;88.56
67192;HTU21D;54120;53.504;49.426;2023-02-15T02:12:34;-9.84;88.95
67192;HTU21D;54120;53.504;49.426;2023-02-15T02:15:03;-9.87;88.25
67192;HTU21D;54120;53.504;49.426;2023-02-15T02:18:01;-9.87;88.36
67192;HTU21D;54120;53.504;49.426;2023-02-15T02:26:37;-9.83;87.96
67192;HTU21D;54120;53.504;49.426;2023-02-15T02:35:06;-9.87;87.14
67192;HTU21D;54120;53.504;49.426;2023-02-15T02:37:51;-9.87;87.28
67192;HTU21D;54120;53.504;49.426;2023-02-15T02:46:02;-9.88;87.16
67192;HTU21D;54120;53.504;49.426;2023-02-15T02:48:32;-9.87;87.70
67192;HTU21D;54120;53.504;49.426;2023-02-15T02:50:58;-9.86;87.25
67192;HTU21D;54120;53.504;49.426;2023-02-15T02:53:24;-9.91;87.73
67192;HTU21D;54120;53.504;49.426;2023-02-15T02:56:01;-9.90;88.12
67192;HTU21D;54120;53.504;49.426;2023-02-15T02:58:37;-9.91;87.67
67192;HTU21D;54120;53.504;49.426;2023-02-15T03:01:20;-9.89;88.02
67192;HTU21D;54120;53.504;49.426;2023-02-15T03:03:50;-9.89;87.83
67192;HTU21D;54120;53.504;49.426;2023-02-15T03:06:42;-9.89;87.65
67192;HTU21D;54120;53.504;49.426;2023-02-15T03:09:18;-9.87;87.77
67192;HTU21D;54120;53.504;49.426;2023-02-15T03:11:47;-9.90;87.89
67192;HTU21D;54120;53.504;49.426;2023-02-15T03:14:15;-9.90;87.67
67192;HTU21D;54120;53.504;49.426;2023-02-15T03:16:45;-9.92;87.67
67192;HTU21D;54120;53.504;49.426;2023-02-15T03:19:17;-9.93;88.06
67192;HTU21D;54120;53.504;49.426;2023-02-15T03:21:53;-9.90;87.93
67192;HTU21D;54120;53.504;49.426;2023-02-15T03:24:42;-9.89;87.93
67192;HTU21D;54120;53.504;49.426;2023-02-15T03:27:14;-9.86;87.96
67192;HTU21D;54120;53.504;49.426;2023-02-15T03:29:44;-9.82;87.27
67192;HTU21D;54120;53.504;49.426;2023-02-15T03:32:14;-9.79;87.15
67192;HTU21D;54120;53.504;49.426;2023-02-15T03:34:41;-9.79;86.79
67192;HTU21D;54120;53.504;49.426;2023-02-15T03:43:35;-9.76;86.88
67192;HTU21D;54120;53.504;49.426;2023-02-15T03:46:12;-9.75;87.32
67192;HTU21D;54120;53.504;49.426;2023-02-15T03:48:44;-9.72;87.75
67192;HTU21D;54120;53.504;49.426;2023-02-15T03:51:16;-9.66;88.12
67192;HTU21D;54120;53.504;49.426;2023-02-15T03:54:30;-9.64;88.46
67192;HTU21D;54120;53.504;49.426;2023-02-15T04:00:09;-9.63;87.82
67192;HTU21D;54120;53.504;49.426;2023-02-15T04:05:51;-9.66;88.03
67192;HTU21D;54120;53.504;49.426;2023-02-15T04:08:17;-9.62;88.37
67192;HTU21D;54120;53.504;49.426;2023-02-15T04:10:43;-9.63;88.46
67192;HTU21D;54120;53.504;49.426;2023-02-15T04:13:19;-9.61;88.83
67192;HTU21D;54120;53.504;49.426;2023-02-15T04:15:45;-9.61;87.91
67192;HTU21D;54120;53.504;49.426;2023-02-15T04:18:34;-9.59;88.46
67192;HTU21D;54120;53.504;49.426;2023-02-15T04:21:20;-9.55;88.68
67192;HTU21D;54120;53.504;49.426;2023-02-15T04:24:05;-9.57;88.35
67192;HTU21D;54120;53.504;49.426;2023-02-15T04:26:49;-9.57;88.24
67192;HTU21D;54120;53.504;49.426;2023-02-15T04:29:19;-9.63;88.43
67192;HTU21D;54120;53.504;49.426;2023-02-15T04:31:45;-9.62;88.15
67192;HTU21D;54120;53.504;49.426;2023-02-15T04:34:11;-9.63;88.09
67192;HTU21D;54120;53.504;49.426;2023-02-15T04:36:38;-9.63;88.23
67192;HTU21D;54120;53.504;49.426;2023-02-15T04:39:05;-9.59;88.51
67192;HTU21D;54120;53.504;49.426;2023-02-15T04:41:32;-9.58;87.81
67192;HTU21D;54120;53.504;49.426;2023-02-15T04:43:58;-9.58;88.25
67192;HTU21D;54120;53.504;49.426;2023-02-15T04:46:24;-9.54;88.60
67192;HTU21D;54120;53.504;49.426;2023-02-15T04:48:51;-9.48;87.99
67192;HTU21D;54120;53.504;49.426;2023-02-15T04:51:16;-9.52;88.02
67192;HTU21D;54120;53.504;49.426;2023-02-15T04:53:42;-9.51;88.08
67192;HTU21D;54120;53.504;49.426;2023-02-15T04:56:08;-9.47;87.84
67192;HTU21D;54120;53.504;49.426;2023-02-15T04:58:34;-9.44;87.79
67192;HTU21D;54120;53.504;49.426;2023-02-15T05:01:02;-9.38;87.09
67192;HTU21D;54120;53.504;49.426;2023-02-15T05:03:28;-9.40;86.63
67192;HTU21D;54120;53.504;49.426;2023-02-15T05:05:54;-9.39;87.19
67192;HTU21D;54120;53.504;49.426;2023-02-15T05:08:20;-9.26;86.94
67192;HTU21D;54120;53.504;49.426;2023-02-15T05:10:49;-9.22;86.29
67192;HTU21D;54120;53.504;49.426;2023-02-15T05:13:15;-9.20;86.70
67192;HTU21D;54120;53.504;49.426;2023-02-15T05:15:45;-9.13;86.08
67192;HTU21D;54120;53.504;49.426;2023-02-15T05:18:12;-9.16;86.11
67192;HTU21D;54120;53.504;49.426;2023-02-15T05:20:38;-9.12;86.04
67192;HTU21D;54120;53.504;49.426;2023-02-15T05:23:04;-9.11;85.61
67192;HTU21D;54120;53.504;49.426;2023-02-15T05:25:30;-9.15;85.53
67192;HTU21D;54120;53.504;49.426;2023-02-15T05:28:14;-9.16;86.02
67192;HTU21D;54120;53.504;49.426;2023-02-15T05:30:51;-9.01;85.88
67192;HTU21D;54120;53.504;49.426;2023-02-15T05:33:17;-8.94;85.45
67192;HTU21D;54120;53.504;49.426;2023-02-15T05:35:43;-8.95;85.28
67192;HTU21D;54120;53.504;49.426;2023-02-15T05:38:09;-8.87;84.62
67192;HTU21D;54120;53.504;49.426;2023-02-15T05:40:35;-8.83;84.37
67192;HTU21D;54120;53.504;49.426;2023-02-15T05:43:01;-8.81;83.87
67192;HTU21D;54120;53.504;49.426;2023-02-15T05:45:27;-8.80;83.44
67192;HTU21D;54120;53.504;49.426;2023-02-15T05:47:53;-8.74;83.00
67192;HTU21D;54120;53.504;49.426;2023-02-15T05:50:19;-8.84;83.58
67192;HTU21D;54120;53.504;49.426;2023-02-15T05:52:45;-8.87;83.65
67192;HTU21D;54120;53.504;49.426;2023-02-15T05:55:11;-8.74;83.02
67192;HTU21D;54120;53.504;49.426;2023-02-15T05:57:37;-8.60;83.09
67192;HTU21D;54120;53.504;49.426;2023-02-15T06:00:04;-8.39;82.01
67192;HTU21D;54120;53.504;49.426;2023-02-15T06:02:37;-8.26;81.97
67192;HTU21D;54120;53.504;49.426;2023-02-15T06:05:04;-8.25;81.35
67192;HTU21D;54120;53.504;49.426;2023-02-15T06:07:30;-8.07;80.59
67192;HTU21D;54120;53.504;49.426;2023-02-15T06:09:57;-7.83;79.40
67192;HTU21D;54120;53.504;49.426;2023-02-15T06:12:23;-7.78;79.40
67192;HTU21D;54120;53.504;49.426;2023-02-15T06:14:50;-7.75;78.37
67192;HTU21D;54120;53.504;49.426;2023-02-15T06:17:16;-7.53;78.02
67192;HTU21D;54120;53.504;49.426;2023-02-15T06:19:43;-6.96;75.75
67192;HTU21D;54120;53.504;49.426;2023-02-15T06:22:09;-7.17;75.76
67192;HTU21D;54120;53.504;49.426;2023-02-15T06:24:35;-7.15;76.02
67192;HTU21D;54120;53.504;49.426;2023-02-15T06:27:01;-6.73;74.33
67192;HTU21D;54120;53.504;49.426;2023-02-15T06:29:27;-6.70;74.40
67192;HTU21D;54120;53.504;49.426;2023-02-15T06:31:53;-6.53;73.54
67192;HTU21D;54120;53.504;49.426;2023-02-15T06:34:19;-6.32;72.37
67192;HTU21D;54120;53.504;49.426;2023-02-15T06:36:45;-6.61;73.39
67192;HTU21D;54120;53.504;49.426;2023-02-15T06:39:11;-6.94;74.14
67192;HTU21D;54120;53.504;49.426;2023-02-15T06:41:37;-6.87;74.35
67192;HTU21D;54120;53.504;49.426;2023-02-15T06:44:03;-6.58;73.18
67192;HTU21D;54120;53.504;49.426;2023-02-15T06:46:29;-6.57;73.38
67192;HTU21D;54120;53.504;49.426;2023-02-15T06:48:55;-6.55;73.09
67192;HTU21D;54120;53.504;49.426;2023-02-15T06:51:21;-6.32;72.91
67192;HTU21D;54120;53.504;49.426;2023-02-15T06:53:47;-6.03;71.06
67192;HTU21D;54120;53.504;49.426;2023-02-15T06:56:12;-5.93;70.32
67192;HTU21D;54120;53.504;49.426;2023-02-15T06:58:39;-6.03;71.02
67192;HTU21D;54120;53.504;49.426;2023-02-15T07:01:07;-6.02;71.69
67192;HTU21D;54120;53.504;49.426;2023-02-15T07:03:34;-5.88;70.19
67192;HTU21D;54120;53.504;49.426;2023-02-15T07:06:01;-6.03;70.80
67192;HTU21D;54120;53.504;49.426;2023-02-15T07:08:28;-6.08;70.90
67192;HTU21D;54120;53.504;49.426;2023-02-15T07:10:55;-6.13;71.49
67192;HTU21D;54120;53.504;49.426;2023-02-15T07:13:42;-6.21;71.51
67192;HTU21D;54120;53.504;49.426;2023-02-15T07:16:11;-6.38;72.84
67192;HTU21D;54120;53.504;49.426;2023-02-15T07:18:38;-5.94;71.80
67192;HTU21D;54120;53.504;49.426;2023-02-15T07:21:05;-5.54;69.97
67192;HTU21D;54120;53.504;49.426;2023-02-15T07:23:37;-5.73;69.27
67192;HTU21D;54120;53.504;49.426;2023-02-15T07:26:05;-6.39;71.94
67192;HTU21D;54120;53.504;49.426;2023-02-15T07:28:32;-6.70;73.90
67192;HTU21D;54120;53.504;49.426;2023-02-15T07:30:58;-6.55;73.19
67192;HTU21D;54120;53.504;49.426;2023-02-15T07:33:24;-6.48;73.52
67192;HTU21D;54120;53.504;49.426;2023-02-15T07:35:51;-6.00;72.34
67192;HTU21D;54120;53.504;49.426;2023-02-15T07:38:18;-6.13;71.67
67192;HTU21D;54120;53.504;49.426;2023-02-15T07:40:45;-6.27;73.15
67192;HTU21D;54120;53.504;49.426;2023-02-15T07:43:11;-5.64;69.96
67192;HTU21D;54120;53.504;49.426;2023-02-15T07:45:38;-6.19;71.74
67192;HTU21D;54120;53.504;49.426;2023-02-15T07:48:05;-6.33;72.57
67192;HTU21D;54120;53.504;49.426;2023-02-15T07:50:31;-6.43;72.99
67192;HTU21D;54120;53.504;49.426;2023-02-15T07:52:57;-6.34;72.98
67192;HTU21D;54120;53.504;49.426;2023-02-15T07:55:23;-6.18;72.81
67192;HTU21D;54120;53.504;49.426;2023-02-15T07:57:51;-6.17;71.55
67192;HTU21D;54120;53.504;49.426;2023-02-15T08:00:18;-6.19;72.16
67192;HTU21D;54120;53.504;49.426;2023-02-15T08:02:56;-6.30;72.64
67192;HTU21D;54120;53.504;49.426;2023-02-15T08:05:43;-5.98;71.13
67192;HTU21D;54120;53.504;49.426;2023-02-15T08:08:10;-6.22;73.28
67192;HTU21D;54120;53.504;49.426;2023-02-15T08:10:58;-5.99;71.73
67192;HTU21D;54120;53.504;49.426;2023-02-15T08:13:45;-5.89;71.71
67192;HTU21D;54120;53.504;49.426;2023-02-15T08:16:40;-5.57;71.13
67192;HTU21D;54120;53.504;49.426;2023-02-15T08:19:11;-5.15;69.46
67192;HTU21D;54120;53.504;49.426;2023-02-15T08:21:40;-4.99;68.85
67192;HTU21D;54120;53.504;49.426;2023-02-15T08:24:07;-5.47;69.67
67192;HTU21D;54120;53.504;49.426;2023-02-15T08:26:34;-5.26;69.20
67192;HTU21D;54120;53.504;49.426;2023-02-15T08:29:00;-5.52;69.71
67192;HTU21D;54120;53.504;49.426;2023-02-15T08:31:27;-5.87;71.71
67192;HTU21D;54120;53.504;49.426;2023-02-15T08:33:55;-5.57;71.58
67192;HTU21D;54120;53.504;49.426;2023-02-15T08:36:24;-5.37;70.99
67192;HTU21D;54120;53.504;49.426;2023-02-15T08:38:50;-5.54;70.66
67192;HTU21D;54120;53.504;49.426;2023-02-15T08:41:46;-4.99;69.21
67192;HTU21D;54120;53.504;49.426;2023-02-15T08:44:15;-4.91;68.23
67192;HTU21D;54120;53.504;49.426;2023-02-15T08:46:42;-4.65;67.99
67192;HTU21D;54120;53.504;49.426;2023-02-15T08:49:15;-4.89;67.68
67192;HTU21D;54120;53.504;49.426;2023-02-15T08:51:41;-4.52;66.10
67192;HTU21D;54120;53.504;49.426;2023-02-15T08:54:11;-4.59;66.69
67192;HTU21D;54120;53.504;49.426;2023-02-15T08:56:40;-4.81;67.81
67192;HTU21D;54120;53.504;49.426;2023-02-15T08:59:07;-5.02;68.10
67192;HTU21D;54120;53.504;49.426;2023-02-15T09:01:37;-5.46;70.58
67192;HTU21D;54120;53.504;49.426;2023-02-15T09:04:07;-5.50;71.36
67192;HTU21D;54120;53.504;49.426;2023-02-15T09:06:37;-5.27;70.38
67192;HTU21D;54120;53.504;49.426;2023-02-15T09:09:04;-5.27;70.31
67192;HTU21D;54120;53.504;49.426;2023-02-15T09:11:34;-5.34;70.39
67192;HTU21D;54120;53.504;49.426;2023-02-15T09:14:04;-5.92;72.41
67192;HTU21D;54120;53.504;49.426;2023-02-15T09:16:32;-5.71;72.41
67192;HTU21D;54120;53.504;49.426;2023-02-15T09:18:58;-5.47;72.00
67192;HTU21D;54120;53.504;49.426;2023-02-15T09:21:26;-5.10;70.41
67192;HTU21D;54120;53.504;49.426;2023-02-15T09:23:57;-5.38;70.45
67192;HTU21D;54120;53.504;49.426;2023-02-15T09:26:26;-5.47;71.78
67192;HTU21D;54120;53.504;49.426;2023-02-15T09:28:55;-5.69;71.62
67192;HTU21D;54120;53.504;49.426;2023-02-15T09:31:24;-5.93;73.37
67192;HTU21D;54120;53.504;49.426;2023-02-15T09:33:51;-5.77;73.26
67192;HTU21D;54120;53.504;49.426;2023-02-15T09:38:45;-5.42;72.41
67192;HTU21D;54120;53.504;49.426;2023-02-15T09:41:50;-5.04;70.36
67192;HTU21D;54120;53.504;49.426;2023-02-15T09:47:22;-4.85;68.65
67192;HTU21D;54120;53.504;49.426;2023-02-15T10:09:36;-5.05;68.50
67192;HTU21D;54120;53.504;49.426;2023-02-15T10:25:57;-4.65;67.22
67192;HTU21D;54120;53.504;49.426;2023-02-15T10:31:36;-4.64;67.20
67192;HTU21D;54120;53.504;49.426;2023-02-15T10:34:22;-4.57;66.59
67192;HTU21D;54120;53.504;49.426;2023-02-15T10:50:57;-4.70;67.23
67192;HTU21D;54120;53.504;49.426;2023-02-15T10:56:35;-4.89;68.70
67192;HTU21D;54120;53.504;49.426;2023-02-15T10:59:31;-5.10;69.50
67192;HTU21D;54120;53.504;49.426;2023-02-15T11:02:15;-5.10;69.94
67192;HTU21D;54120;53.504;49.426;2023-02-15T11:07:33;-5.08;69.33
67192;HTU21D;54120;53.504;49.426;2023-02-15T11:12:57;-5.01;70.07
67192;HTU21D;54120;53.504;49.426;2023-02-15T11:15:33;-5.22;71.09
67192;HTU21D;54120;53.504;49.426;2023-02-15T11:18:27;-5.27;71.64
67192;HTU21D;54120;53.504;49.426;2023-02-15T11:23:44;-5.26;72.16
67192;HTU21D;54120;53.504;49.426;2023-02-15T11:28:54;-5.22;73.52
67192;HTU21D;54120;53.504;49.426;2023-02-15T11:31:23;-4.96;73.31
67192;HTU21D;54120;53.504;49.426;2023-02-15T11:33:58;-5.24;74.13
67192;HTU21D;54120;53.504;49.426;2023-02-15T11:36:28;-5.25;74.74
67192;HTU21D;54120;53.504;49.426;2023-02-15T11:39:11;-5.24;74.16
67192;HTU21D;54120;53.504;49.426;2023-02-15T11:41:40;-5.42;74.70
67192;HTU21D;54120;53.504;49.426;2023-02-15T11:44:18;-5.53;75.35
67192;HTU21D;54120;53.504;49.426;2023-02-15T11:46:45;-5.60;76.24
67192;HTU21D;54120;53.504;49.426;2023-02-15T11:49:46;-5.55;75.97
67192;HTU21D;54120;53.504;49.426;2023-02-15T11:52:14;-5.68;76.44
67192;HTU21D;54120;53.504;49.426;2023-02-15T11:54:47;-5.48;76.01
67192;HTU21D;54120;53.504;49.426;2023-02-15T11:57:22;-5.39;75.64
67192;HTU21D;54120;53.504;49.426;2023-02-15T11:59:55;-5.56;75.96
67192;HTU21D;54120;53.504;49.426;2023-02-15T12:02:22;-5.59;76.08
67192;HTU21D;54120;53.504;49.426;2023-02-15T12:04:56;-5.85;76.85
67192;HTU21D;54120;53.504;49.426;2023-02-15T12:07:35;-5.99;77.53
67192;HTU21D;54120;53.504;49.426;2023-02-15T12:12:47;-6.34;79.00
67192;HTU21D;54120;53.504;49.426;2023-02-15T12:15:13;-6.27;79.12
67192;HTU21D;54120;53.504;49.426;2023-02-15T12:17:52;-6.23;78.24
67192;HTU21D;54120;53.504;49.426;2023-02-15T12:20:30;-6.20;76.92
67192;HTU21D;54120;53.504;49.426;2023-02-15T12:23:05;-6.43;77.50
67192;HTU21D;54120;53.504;49.426;2023-02-15T12:25:41;-6.63;78.79
67192;HTU21D;54120;53.504;49.426;2023-02-15T12:28:38;-6.86;79.96
67192;HTU21D;54120;53.504;49.426;2023-02-15T12:31:39;-6.89;80.57
67192;HTU21D;54120;53.504;49.426;2023-02-15T12:34:22;-7.00;81.27
67192;HTU21D;54120;53.504;49.426;2023-02-15T12:36:55;-7.04;81.59
67192;HTU21D;54120;53.504;49.426;2023-02-15T12:39:28;-7.08;81.85
67192;HTU21D;54120;53.504;49.426;2023-02-15T12:44:24;-7.03;81.72
67192;HTU21D;54120;53.504;49.426;2023-02-15T12:49:44;-7.27;82.95
67192;HTU21D;54120;53.504;49.426;2023-02-15T12:54:46;-7.31;83.13
67192;HTU21D;54120;53.504;49.426;2023-02-15T12:57:29;-7.27;82.79
67192;HTU21D;54120;53.504;49.426;2023-02-15T12:59:56;-7.33;83.29
67192;HTU21D;54120;53.504;49.426;2023-02-15T13:02:46;-7.38;83.39
67192;HTU21D;54120;53.504;49.426;2023-02-15T13:05:25;-7.39;83.78
67192;HTU21D;54120;53.504;49.426;2023-02-15T13:08:02;-7.37;83.91
67192;HTU21D;54120;53.504;49.426;2023-02-15T13:13:27;-7.40;83.59
67192;HTU21D;54120;53.504;49.426;2023-02-15T13:16:04;-7.48;83.88
67192;HTU21D;54120;53.504;49.426;2023-02-15T13:18:35;-7.47;84.45
67192;HTU21D;54120;53.504;49.426;2023-02-15T13:21:15;-7.50;84.81
67192;HTU21D;54120;53.504;49.426;2023-02-15T13:23:48;-7.49;84.39
67192;HTU21D;54120;53.504;49.426;2023-02-15T13:26:23;-7.53;84.74
67192;HTU21D;54120;53.504;49.426;2023-02-15T13:28:54;-7.59;85.12
67192;HTU21D;54120;53.504;49.426;2023-02-15T13:31:25;-7.60;85.61
67192;HTU21D;54120;53.504;49.426;2023-02-15T13:33:58;-7.60;85.93
67192;HTU21D;54120;53.504;49.426;2023-02-15T13:36:34;-7.66;86.05
67192;HTU21D;54120;53.504;49.426;2023-02-15T13:41:55;-7.91;86.74
67192;HTU21D;54120;53.504;49.426;2023-02-15T13:55:53;-7.96;87.57
67192;HTU21D;54120;53.504;49.426;2023-02-15T14:01:44;-7.95;87.35
67192;HTU21D;54120;53.504;49.426;2023-02-15T14:17:56;-7.96;88.44
67192;HTU21D;54120;53.504;49.426;2023-02-15T14:26:35;-8.00;89.43
67192;HTU21D;54120;53.504;49.426;2023-02-15T14:31:48;-8.05;89.34
67192;HTU21D;54120;53.504;49.426;2023-02-15T14:34:27;-8.08;89.47
67192;HTU21D;54120;53.504;49.426;2023-02-15T14:36:57;-8.09;89.54
67192;HTU21D;54120;53.504;49.426;2023-02-15T14:39:31;-8.10;89.69
67192;HTU21D;54120;53.504;49.426;2023-02-15T14:45:05;-8.14;90.34
67192;HTU21D;54120;53.504;49.426;2023-02-15T14:47:42;-8.15;90.53
67192;HTU21D;54120;53.504;49.426;2023-02-15T14:58:38;-8.18;89.72
67192;HTU21D;54120;53.504;49.426;2023-02-15T15:01:06;-8.22;89.48
67192;HTU21D;54120;53.504;49.426;2023-02-15T15:03:33;-8.22;89.55
67192;HTU21D;54120;53.504;49.426;2023-02-15T15:06:03;-8.20;89.56
67192;HTU21D;54120;53.504;49.426;2023-02-15T15:08:37;-8.19;89.05
67192;HTU21D;54120;53.504;49.426;2023-02-15T15:13:59;-8.23;89.06
67192;HTU21D;54120;53.504;49.426;2023-02-15T15:19:03;-8.26;89.36
67192;HTU21D;54120;53.504;49.426;2023-02-15T15:21:53;-8.29;89.48
67192;HTU21D;54120;53.504;49.426;2023-02-15T15:27:51;-8.37;89.53
67192;HTU21D;54120;53.504;49.426;2023-02-15T15:49:09;-8.50;90.73
67192;HTU21D;54120;53.504;49.426;2023-02-15T15:51:42;-8.49;91.11
67192;HTU21D;54120;53.504;49.426;2023-02-15T15:54:15;-8.48;91.29
67192;HTU21D;54120;53.504;49.426;2023-02-15T15:56:46;-8.46;91.02
67192;HTU21D;54120;53.504;49.426;2023-02-15T15:59:21;-8.46;91.08
67192;HTU21D;54120;53.504;49.426;2023-02-15T16:01:48;-8.49;90.73
67192;HTU21D;54120;53.504;49.426;2023-02-15T16:04:24;-8.48;90.79
67192;HTU21D;54120;53.504;49.426;2023-02-15T16:06:51;-8.52;90.77
67192;HTU21D;54120;53.504;49.426;2023-02-15T16:09:21;-8.53;90.85
67192;HTU21D;54120;53.504;49.426;2023-02-15T16:11:53;-8.55;90.88
67192;HTU21D;54120;53.504;49.426;2023-02-15T16:14:40;-8.55;90.93
67192;HTU21D;54120;53.504;49.426;2023-02-15T16:17:20;-8.60;90.98
67192;HTU21D;54120;53.504;49.426;2023-02-15T16:19:48;-8.58;91.08
67192;HTU21D;54120;53.504;49.426;2023-02-15T16:22:23;-8.54;91.05
67192;HTU21D;54120;53.504;49.426;2023-02-15T16:27:39;-8.56;90.86
67192;HTU21D;54120;53.504;49.426;2023-02-15T16:30:24;-8.50;90.93
67192;HTU21D;54120;53.504;49.426;2023-02-15T16:35:34;-8.45;90.98
67192;HTU21D;54120;53.504;49.426;2023-02-15T16:38:02;-8.42;90.97
67192;HTU21D;54120;53.504;49.426;2023-02-15T16:43:13;-8.40;90.73
67192;HTU21D;54120;53.504;49.426;2023-02-15T16:45:41;-8.40;90.58
67192;HTU21D;54120;53.504;49.426;2023-02-15T16:48:13;-8.40;90.31
67192;HTU21D;54120;53.504;49.426;2023-02-15T16:50:58;-8.39;89.95
67192;HTU21D;54120;53.504;49.426;2023-02-15T16:53:27;-8.39;89.91
67192;HTU21D;54120;53.504;49.426;2023-02-15T16:55:55;-8.37;89.76
67192;HTU21D;54120;53.504;49.426;2023-02-15T16:58:38;-8.38;89.77
67192;HTU21D;54120;53.504;49.426;2023-02-15T17:01:07;-8.37;89.73
67192;HTU21D;54120;53.504;49.426;2023-02-15T17:03:36;-8.40;89.47
67192;HTU21D;54120;53.504;49.426;2023-02-15T17:06:03;-8.43;89.66
67192;HTU21D;54120;53.504;49.426;2023-02-15T17:08:43;-8.42;89.66
67192;HTU21D;54120;53.504;49.426;2023-02-15T17:11:19;-8.40;89.90
67192;HTU21D;54120;53.504;49.426;2023-02-15T17:16:53;-8.36;90.18
67192;HTU21D;54120;53.504;49.426;2023-02-15T17:19:21;-8.37;90.22
67192;HTU21D;54120;53.504;49.426;2023-02-15T17:21:59;-8.36;90.37
67192;HTU21D;54120;53.504;49.426;2023-02-15T17:24:41;-8.35;89.98
67192;HTU21D;54120;53.504;49.426;2023-02-15T17:27:20;-8.39;90.34
67192;HTU21D;54120;53.504;49.426;2023-02-15T17:30:01;-8.40;90.24
67192;HTU21D;54120;53.504;49.426;2023-02-15T17:32:30;-8.44;90.34
67192;HTU21D;54120;53.504;49.426;2023-02-15T17:37:31;-8.50;90.41
67192;HTU21D;54120;53.504;49.426;2023-02-15T17:39:59;-8.52;90.39
67192;HTU21D;54120;53.504;49.426;2023-02-15T17:42:25;-8.55;90.13
67192;HTU21D;54120;53.504;49.426;2023-02-15T17:44:51;-8.55;90.34
67192;HTU21D;54120;53.504;49.426;2023-02-15T17:47:20;-8.54;90.37
67192;HTU21D;54120;53.504;49.426;2023-02-15T17:49:48;-8.52;90.28
67192;HTU21D;54120;53.504;49.426;2023-02-15T17:52:17;-8.51;90.28
67192;HTU21D;54120;53.504;49.426;2023-02-15T17:54:43;-8.50;90.42
67192;HTU21D;54120;53.504;49.426;2023-02-15T17:57:29;-8.48;90.51
67192;HTU21D;54120;53.504;49.426;2023-02-15T17:59:56;-8.46;90.76
67192;HTU21D;54120;53.504;49.426;2023-02-15T18:02:41;-8.45;90.66
67192;HTU21D;54120;53.504;49.426;2023-02-15T18:05:26;-8.44;90.76
67192;HTU21D;54120;53.504;49.426;2023-02-15T18:08:15;-8.43;90.69
67192;HTU21D;54120;53.504;49.426;2023-02-15T18:11:01;-8.42;90.71
67192;HTU21D;54120;53.504;49.426;2023-02-15T18:13:45;-8.42;90.56
67192;HTU21D;54120;53.504;49.426;2023-02-15T18:16:19;-8.41;90.55
67192;HTU21D;54120;53.504;49.426;2023-02-15T18:18:45;-8.44;90.24
67192;HTU21D;54120;53.504;49.426;2023-02-15T18:21:11;-8.51;90.31
67192;HTU21D;54120;53.504;49.426;2023-02-15T18:23:38;-8.54;90.18
67192;HTU21D;54120;53.504;49.426;2023-02-15T18:26:05;-8.58;90.50
67192;HTU21D;54120;53.504;49.426;2023-02-15T18:28:31;-8.62;90.57
67192;HTU21D;54120;53.504;49.426;2023-02-15T18:30:58;-8.60;90.63
67192;HTU21D;54120;53.504;49.426;2023-02-15T18:33:34;-8.60;90.60
67192;HTU21D;54120;53.504;49.426;2023-02-15T18:36:04;-8.58;90.56
67192;HTU21D;54120;53.504;49.426;2023-02-15T18:38:30;-8.63;90.71
67192;HTU21D;54120;53.504;49.426;2023-02-15T18:40:57;-8.66;90.76
67192;HTU21D;54120;53.504;49.426;2023-02-15T18:43:23;-8.71;91.02
67192;HTU21D;54120;53.504;49.426;2023-02-15T18:45:49;-8.73;91.17
67192;HTU21D;54120;53.504;49.426;2023-02-15T18:48:15;-8.74;91.31
67192;HTU21D;54120;53.504;49.426;2023-02-15T18:50:41;-8.75;91.43
67192;HTU21D;54120;53.504;49.426;2023-02-15T18:53:16;-8.78;91.48
67192;HTU21D;54120;53.504;49.426;2023-02-15T18:55:43;-8.80;91.54
67192;HTU21D;54120;53.504;49.426;2023-02-15T18:58:15;-8.82;91.67